Time;durP1;ratioP1;P1;durP2;ratioP2;P2;SDS_P1;SDS_P2;PMS_P1;PMS_P2;Temp;Humidity;BMP_temperature;BMP_pressure;BME280_temperature;BME280_humidity;BME280_pressure;Samples;Min_cycle;Max_cycle;Signal;HPM_P1;HPM_P2
2023/04/12 06:38:02;;;;;;;;;0.00;0.00;;;;;17.11;48.58;99813.94;5073517;27;45822;-78
2023/04/12 06:40:28;;;;;;;;;0.33;0.33;;;;;17.67;50.17;99821.13;5068519;28;45565;-78
2023/04/12 06:42:53;;;;;;;;;2.00;2.00;;;;;18.49;50.34;99817.47;5070188;27;45734;-77
2023/04/12 06:45:18;;;;;;;;;2.50;2.00;;;;;19.35;49.85;99800.63;5066157;28;49295;-76
2023/04/12 06:47:44;;;;;;;;;0.00;0.00;;;;;20.19;49.72;99820.47;5069109;28;46311;-77
2023/04/12 06:50:09;;;;;;;;;0.00;0.00;;;;;20.96;49.54;99834.53;5062481;28;45358;-78
2023/04/12 06:52:35;;;;;;;;;2.67;2.00;;;;;21.59;48.88;99826.50;5068618;28;45412;-78
2023/04/12 06:55:00;;;;;;;;;0.00;0.00;;;;;22.15;47.84;99828.13;5067509;27;45368;-77
2023/04/12 06:57:25;;;;;;;;;1.00;1.00;;;;;22.62;47.39;99847.03;5068625;28;46157;-77
2023/04/12 06:59:51;;;;;;;;;1.00;1.00;;;;;22.99;46.62;99850.72;5062272;28;45455;-78
2023/04/12 07:02:17;;;;;;;;;1.33;0.00;;;;;23.35;46.65;99849.13;5068958;28;45721;-77
2023/04/12 07:04:42;;;;;;;;;0.00;0.00;;;;;23.64;45.89;99852.81;5067365;28;45332;-77
2023/04/12 07:07:09;;;;;;;;;2.00;0.67;;;;;23.91;45.51;99855.78;5067705;28;46138;-78
2023/04/12 07:09:34;;;;;;;;;0.00;0.00;;;;;24.13;45.32;99850.41;5066505;28;45455;-77
2023/04/12 07:12:01;;;;;;;;;0.00;0.00;;;;;24.34;45.01;99854.13;5057106;28;45454;-77
2023/04/12 07:14:26;;;;;;;;;1.00;1.00;;;;;24.53;44.49;99866.19;5068057;28;45458;-77
2023/04/12 07:16:51;;;;;;;;;0.00;0.00;;;;;24.71;44.51;99859.41;5068394;27;45398;-76
2023/04/12 07:19:17;;;;;;;;;0.00;0.00;;;;;24.86;43.84;99851.22;5067477;28;45372;-80
2023/04/12 07:21:42;;;;;;;;;0.00;0.00;;;;;24.99;43.41;99847.72;5068638;28;45366;-80
2023/04/12 07:24:07;;;;;;;;;2.00;0.00;;;;;25.12;43.33;99849.69;5066294;27;45470;-80
2023/04/12 07:26:33;;;;;;;;;0.00;0.00;;;;;25.24;42.91;99858.09;5066257;27;46263;-82
2023/04/12 07:28:58;;;;;;;;;2.00;0.00;;;;;25.36;43.08;99839.34;5068000;28;45451;-80
2023/04/12 07:31:24;;;;;;;;;1.00;1.00;;;;;25.46;42.75;99833.53;5073362;27;45465;-78
2023/04/12 07:33:49;;;;;;;;;0.00;0.00;;;;;25.58;42.34;99825.66;5073963;27;45421;-81
2023/04/12 07:36:15;;;;;;;;;1.00;0.67;;;;;25.70;41.95;99828.63;5067919;28;45485;-80
2023/04/12 07:38:41;;;;;;;;;1.00;1.00;;;;;25.77;41.86;99816.72;5067927;27;45371;-79
2023/04/12 07:41:07;;;;;;;;;0.00;0.00;;;;;25.88;42.09;99826.13;5063843;27;45431;-78
2023/04/12 07:43:32;;;;;;;;;0.00;0.00;;;;;25.98;41.99;99825.75;5057390;27;45588;-79
2023/04/12 07:45:57;;;;;;;;;0.00;0.00;;;;;26.04;41.72;99811.31;5067769;28;45793;-79
2023/04/12 07:48:23;;;;;;;;;0.67;0.00;;;;;26.13;41.28;99813.84;5059181;28;45458;-78
2023/04/12 07:50:48;;;;;;;;;0.00;0.00;;;;;26.17;41.08;99794.16;5054266;28;45502;-78
2023/04/12 07:53:21;;;;;;;;;1.00;1.00;;;;;26.24;40.91;99793.34;5052798;28;45749;-78
2023/04/12 07:55:46;;;;;;;;;0.00;0.00;;;;;26.30;40.49;99795.25;5052781;28;45564;-79
2023/04/12 07:58:12;;;;;;;;;0.67;0.00;;;;;26.37;40.71;99797.97;5051966;28;45498;-80
2023/04/12 08:00:37;;;;;;;;;0.00;0.00;;;;;26.43;40.71;99788.94;5052534;28;45536;-81
2023/04/12 08:03:02;;;;;;;;;0.00;0.00;;;;;26.44;40.63;99794.19;5053827;28;45324;-80
2023/04/12 08:05:28;;;;;;;;;0.00;0.00;;;;;26.50;40.66;99810.72;5053011;28;46113;-80
2023/04/12 08:07:53;;;;;;;;;0.00;0.00;;;;;26.55;40.01;99809.03;5053951;28;45597;-81
2023/04/12 08:10:18;;;;;;;;;0.00;0.00;;;;;26.59;40.53;99812.16;5051511;28;45486;-80
2023/04/12 08:12:44;;;;;;;;;0.67;0.67;;;;;26.64;40.23;99809.63;5050797;28;45481;-83
2023/04/12 08:15:09;;;;;;;;;1.00;1.00;;;;;26.66;39.31;99818.44;5040477;28;45899;-80
2023/04/12 08:17:35;;;;;;;;;1.00;1.00;;;;;26.68;39.31;99818.19;5049272;28;45526;-78
2023/04/12 08:20:00;;;;;;;;;1.00;1.00;;;;;26.69;39.62;99823.44;5052774;28;50992;-78
2023/04/12 08:22:26;;;;;;;;;2.00;0.00;;;;;26.65;39.77;99824.91;5047322;28;45813;-82
2023/04/12 08:24:51;;;;;;;;;0.00;0.00;;;;;26.66;39.49;99839.38;5049029;28;46283;-79
2023/04/12 08:27:17;;;;;;;;;0.00;0.00;;;;;26.65;39.16;99851.31;5053130;28;45492;-78
2023/04/12 08:29:42;;;;;;;;;0.00;0.00;;;;;26.64;39.08;99847.72;5052950;28;45505;-78
2023/04/12 08:32:09;;;;;;;;;0.00;0.00;;;;;26.64;38.43;99850.47;5057820;28;45662;-79
2023/04/12 08:34:34;;;;;;;;;1.00;1.00;;;;;26.66;38.69;99862.00;5046286;28;45543;-78
2023/04/12 08:36:59;;;;;;;;;0.00;0.00;;;;;26.68;38.41;99870.75;5036095;28;45459;-77
2023/04/12 08:39:25;;;;;;;;;0.00;0.00;;;;;26.71;38.23;99874.94;5051011;28;45472;-78
2023/04/12 08:41:51;;;;;;;;;1.00;1.00;;;;;26.74;38.56;99876.41;5051416;28;45365;-78
2023/04/12 08:44:17;;;;;;;;;0.00;0.00;;;;;26.77;38.66;99884.97;5049935;28;45614;-77
2023/04/12 08:46:43;;;;;;;;;0.00;0.00;;;;;26.79;38.19;99885.63;5053235;28;45368;-78
2023/04/12 08:49:09;;;;;;;;;1.67;0.00;;;;;26.81;38.26;99896.31;5040131;28;45502;-80
2023/04/12 08:51:36;;;;;;;;;0.00;0.00;;;;;26.82;37.62;99904.25;5047158;28;45861;-81
2023/04/12 08:54:02;;;;;;;;;0.00;0.00;;;;;26.82;37.34;99900.69;5039222;28;47082;-78
2023/04/12 08:56:28;;;;;;;;;2.00;0.33;;;;;26.82;37.51;99906.97;5053043;28;45477;-79
2023/04/12 08:58:55;;;;;;;;;2.00;0.00;;;;;26.85;37.33;99913.88;5051615;28;45406;-77
2023/04/12 09:01:20;;;;;;;;;0.00;0.00;;;;;26.87;37.94;99908.22;5042667;28;45736;-79
2023/04/12 09:03:45;;;;;;;;;0.00;0.00;;;;;26.88;37.20;99916.19;5052339;28;46068;-78
2023/04/12 09:06:12;;;;;;;;;0.00;0.00;;;;;26.87;37.78;99906.34;5043665;28;45582;-78
2023/04/12 09:08:50;;;;;;;;;0.00;0.00;;;;;26.89;37.52;99914.31;5048356;28;45415;-79
2023/04/12 09:11:28;;;;;;;;;0.00;0.00;;;;;26.91;36.77;99910.31;5046503;28;45377;-79
2023/04/12 09:13:54;;;;;;;;;0.00;0.00;;;;;26.93;36.78;99905.53;5053122;28;45459;-79
2023/04/12 09:16:36;;;;;;;;;0.00;0.00;;;;;26.95;36.88;99908.03;5054403;28;45515;-80
2023/04/12 09:19:02;;;;;;;;;0.00;0.00;;;;;26.97;37.30;99911.38;5052914;28;45555;-78
2023/04/12 09:21:28;;;;;;;;;0.00;0.00;;;;;27.01;37.18;99915.34;5051099;28;45585;-80
2023/04/12 09:24:10;;;;;;;;;0.00;0.00;;;;;27.04;37.36;99914.94;5046445;28;46144;-80
2023/04/12 09:26:36;;;;;;;;;0.00;0.00;;;;;27.08;36.32;99918.06;5044187;28;47063;-82
2023/04/12 09:29:04;;;;;;;;;0.00;0.00;;;;;27.08;36.86;99912.63;5038913;28;45402;-83
2023/04/12 09:31:30;;;;;;;;;0.00;0.00;;;;;27.11;37.04;99920.38;5056804;28;45562;-77
2023/04/12 09:34:08;;;;;;;;;2.00;1.00;;;;;27.13;36.21;99915.53;5038789;28;45427;-76
2023/04/12 09:36:40;;;;;;;;;0.00;0.00;;;;;27.12;36.16;99913.03;5050039;28;45482;-77
2023/04/12 09:39:06;;;;;;;;;3.67;1.67;;;;;27.12;36.23;99919.31;5048671;28;45582;-81
2023/04/12 09:41:32;;;;;;;;;3.00;1.00;;;;;27.09;35.97;99923.31;5046674;28;45592;-78
2023/04/12 09:43:58;;;;;;;;;0.00;0.00;;;;;27.11;36.17;99920.38;5051893;28;46466;-77
2023/04/12 09:46:23;;;;;;;;;2.67;0.33;;;;;27.12;35.90;99927.47;5051408;28;45477;-77
2023/04/12 09:48:51;;;;;;;;;0.00;0.00;;;;;27.12;36.26;99932.09;5050144;28;45394;-77
2023/04/12 09:51:31;;;;;;;;;0.00;0.00;;;;;27.09;36.37;99931.47;5051034;28;45458;-77
2023/04/12 09:53:59;;;;;;;;;0.00;0.00;;;;;27.08;35.72;99937.97;5051645;28;47184;-77
2023/04/12 09:56:28;;;;;;;;;1.33;0.00;;;;;27.08;36.22;99937.13;5050901;28;45363;-77
2023/04/12 09:58:55;;;;;;;;;1.00;1.00;;;;;27.04;35.89;99933.16;5049329;28;45601;-78
2023/04/12 10:01:22;;;;;;;;;1.67;0.00;;;;;27.01;36.10;99928.16;5051896;28;45743;-78
2023/04/12 10:03:47;;;;;;;;;0.33;0.00;;;;;27.00;36.08;99932.75;5051680;28;45432;-78
2023/04/12 10:06:14;;;;;;;;;1.00;0.00;;;;;27.01;36.04;99933.59;5051422;28;45461;-79
2023/04/12 10:08:40;;;;;;;;;0.00;0.00;;;;;26.99;35.60;99932.94;5042762;28;45415;-78
2023/04/12 10:11:06;;;;;;;;;0.00;0.00;;;;;27.00;35.49;99932.75;5047900;28;45529;-78
2023/04/12 10:13:32;;;;;;;;;0.33;0.33;;;;;26.97;35.16;99927.72;5051404;28;45470;-78
2023/04/12 10:15:59;;;;;;;;;0.67;0.00;;;;;26.96;35.27;99926.88;5051446;28;45444;-78
2023/04/12 10:18:26;;;;;;;;;0.00;0.00;;;;;26.96;35.92;99940.50;5051383;28;45777;-78
2023/04/12 10:20:51;;;;;;;;;1.00;1.00;;;;;26.94;35.17;99933.59;5050826;28;45455;-78
2023/04/12 10:23:17;;;;;;;;;2.00;1.00;;;;;26.93;35.13;99931.91;5045749;28;46291;-78
2023/04/12 10:25:46;;;;;;;;;1.00;1.00;;;;;26.94;35.79;99933.59;5047324;28;45451;-78
2023/04/12 10:28:17;;;;;;;;;0.33;0.33;;;;;26.97;35.06;99933.16;5051958;28;45560;-78
2023/04/12 10:30:43;;;;;;;;;0.00;0.00;;;;;26.98;35.62;99936.72;5048884;28;45304;-78
2023/04/12 10:33:08;;;;;;;;;1.00;1.00;;;;;26.96;35.55;99940.50;5043371;28;45628;-78
2023/04/12 10:35:53;;;;;;;;;0.00;0.00;;;;;26.95;34.93;99940.72;5049536;28;45908;-78
2023/04/12 10:38:20;;;;;;;;;0.00;0.00;;;;;26.96;35.22;99942.38;5048771;28;45602;-78
2023/04/12 10:41:08;;;;;;;;;2.67;1.00;;;;;26.98;35.54;99942.16;5050282;28;45400;-78
2023/04/12 10:43:33;;;;;;;;;0.00;0.00;;;;;26.98;35.08;99942.16;5042220;28;45534;-78
2023/04/12 10:46:03;;;;;;;;;0.33;0.33;;;;;27.01;35.49;99928.97;5047219;28;47005;-78
2023/04/12 10:48:36;;;;;;;;;0.33;0.00;;;;;27.06;35.40;99934.59;5046062;28;45391;-78
2023/04/12 10:51:25;;;;;;;;;1.00;1.00;;;;;27.12;35.05;99935.66;5049692;28;45518;-78
2023/04/12 10:54:10;;;;;;;;;0.00;0.00;;;;;27.18;34.84;99936.69;5042460;28;46269;-78
2023/04/12 10:56:37;;;;;;;;;2.00;2.00;;;;;27.17;34.96;99944.03;5049006;28;45544;-79
2023/04/12 10:59:04;;;;;;;;;2.67;0.00;;;;;27.20;35.32;99945.47;5049632;28;46557;-78
2023/04/12 11:01:30;;;;;;;;;0.00;0.00;;;;;27.21;34.55;99941.69;5044244;28;45513;-78
2023/04/12 11:04:19;;;;;;;;;0.00;0.00;;;;;27.24;35.16;99946.75;5046603;28;46028;-78
2023/04/12 11:06:50;;;;;;;;;0.00;0.00;;;;;27.26;35.03;99950.06;5050003;28;45458;-78
2023/04/12 11:09:26;;;;;;;;;0.00;0.00;;;;;27.24;34.56;99941.28;5050028;28;45499;-78
2023/04/12 11:11:55;;;;;;;;;0.33;0.00;;;;;27.28;34.53;99938.97;5043965;28;45758;-78
2023/04/12 11:14:27;;;;;;;;;0.00;0.00;;;;;27.27;34.73;99938.16;5045356;28;45363;-78
2023/04/12 11:17:08;;;;;;;;;2.33;0.00;;;;;27.30;34.30;99939.59;5048236;28;45395;-78
2023/04/12 11:19:38;;;;;;;;;1.00;1.00;;;;;27.32;34.75;99946.50;5050535;28;45836;-78
2023/04/12 11:22:05;;;;;;;;;0.67;0.00;;;;;27.32;34.76;99945.66;5042646;28;45577;-83
2023/04/12 11:24:30;;;;;;;;;1.00;1.00;;;;;27.32;34.23;99935.63;5049435;28;45705;-82
2023/04/12 11:26:56;;;;;;;;;1.00;0.00;;;;;27.39;35.02;99935.59;5046869;28;45797;-81
2023/04/12 11:29:26;;;;;;;;;1.00;1.00;;;;;27.50;34.90;99928.63;5054813;28;45391;-80
2023/04/12 11:31:52;;;;;;;;;0.67;0.67;;;;;27.60;34.46;99936.41;5044069;28;45395;-79
2023/04/12 11:34:18;;;;;;;;;1.00;1.00;;;;;27.73;35.04;99936.34;5047324;28;46304;-77
2023/04/12 11:36:54;;;;;;;;;0.00;0.00;;;;;27.84;34.14;99933.97;5053586;28;45345;-81
2023/04/12 11:39:20;;;;;;;;;2.00;0.00;;;;;27.93;34.77;99927.22;5053759;28;45560;-80
2023/04/12 11:41:48;;;;;;;;;2.00;0.00;;;;;28.04;34.29;99931.16;5053506;28;45403;-80
2023/04/12 11:44:18;;;;;;;;;0.00;0.00;;;;;28.13;34.17;99915.34;5043252;28;46545;-80
2023/04/12 11:46:44;;;;;;;;;1.00;1.00;;;;;28.23;34.64;99926.63;5054210;28;45431;-81
2023/04/12 11:49:15;;;;;;;;;1.00;0.00;;;;;28.32;33.96;99929.13;5051143;28;45638;-78
2023/04/12 11:51:40;;;;;;;;;0.00;0.00;;;;;28.41;34.38;99925.06;5049042;28;45431;-78
2023/04/12 11:54:06;;;;;;;;;0.00;0.00;;;;;28.49;34.25;99919.31;5053548;28;47347;-78
2023/04/12 11:56:31;;;;;;;;;1.00;1.00;;;;;28.56;34.35;99921.19;5051473;28;45502;-77
2023/04/12 11:58:57;;;;;;;;;0.00;0.00;;;;;28.59;34.28;99905.19;5050659;28;45424;-78
2023/04/12 12:01:23;;;;;;;;;1.00;0.00;;;;;28.68;34.05;99913.91;5052344;28;45525;-78
2023/04/12 12:03:48;;;;;;;;;0.67;0.00;;;;;28.71;33.92;99908.03;5051657;28;46913;-77
2023/04/12 12:06:15;;;;;;;;;2.00;0.67;;;;;28.75;33.90;99903.78;5047372;28;45519;-78
2023/04/12 12:08:40;;;;;;;;;0.00;0.00;;;;;28.77;33.83;99896.19;5041615;28;45786;-78
2023/04/12 12:11:06;;;;;;;;;1.00;1.00;;;;;28.80;34.01;99909.41;5047372;28;45515;-75
2023/04/12 12:13:49;;;;;;;;;1.00;0.00;;;;;28.83;33.50;99910.00;5047434;28;46433;-74
2023/04/12 12:16:16;;;;;;;;;0.00;0.00;;;;;28.82;33.56;99908.34;5049756;28;45470;-74
2023/04/12 12:18:42;;;;;;;;;1.00;1.00;;;;;28.72;33.60;99908.88;5041427;28;45422;-75
2023/04/12 12:21:09;;;;;;;;;2.33;2.33;;;;;28.62;33.73;99904.75;5047038;28;45614;-80
2023/04/12 12:23:35;;;;;;;;;1.00;1.00;;;;;28.52;33.75;99905.22;5053145;28;45618;-81
2023/04/12 12:26:05;;;;;;;;;0.00;0.00;;;;;28.43;33.93;99903.84;5041530;28;47015;-81
2023/04/12 12:28:36;;;;;;;;;0.00;0.00;;;;;28.35;33.79;99904.94;5052083;28;45608;-80
2023/04/12 12:31:05;;;;;;;;;2.33;0.67;;;;;28.27;33.38;99914.25;5049141;28;45499;-80
2023/04/12 12:33:41;;;;;;;;;0.00;0.00;;;;;28.19;33.50;99903.56;5052258;28;45501;-81
2023/04/12 12:36:08;;;;;;;;;0.00;0.00;;;;;28.11;32.83;99912.00;5041283;28;45513;-82
2023/04/12 12:38:35;;;;;;;;;1.33;1.00;;;;;28.04;33.37;99911.22;5042193;28;45742;-76
2023/04/12 12:41:19;;;;;;;;;2.67;1.33;;;;;27.96;32.84;99906.88;5067138;28;45450;-76
2023/04/12 12:43:50;;;;;;;;;0.33;0.33;;;;;27.90;32.84;99916.75;5040687;28;45695;-77
2023/04/12 12:46:17;;;;;;;;;1.00;1.00;;;;;27.83;33.38;99915.97;5053574;28;45677;-77
2023/04/12 12:48:43;;;;;;;;;0.67;0.00;;;;;27.79;33.60;99917.44;5053352;28;45543;-76
2023/04/12 12:51:09;;;;;;;;;1.00;1.00;;;;;27.72;33.49;99915.56;5053538;28;45485;-76
2023/04/12 12:53:35;;;;;;;;;0.00;0.00;;;;;27.70;33.45;99901.31;5053739;28;45597;-76
2023/04/12 12:56:00;;;;;;;;;0.00;0.00;;;;;27.62;32.98;99899.69;5052346;28;46177;-76
2023/04/12 12:58:26;;;;;;;;;0.00;0.00;;;;;27.64;33.12;99914.97;5053090;28;45456;-77
2023/04/12 13:00:51;;;;;;;;;0.00;0.00;;;;;27.62;33.02;99920.66;5036810;28;45547;-77
2023/04/12 13:03:16;;;;;;;;;1.00;0.00;;;;;27.60;33.41;99910.00;5042095;28;46499;-76
2023/04/12 13:05:42;;;;;;;;;0.00;0.00;;;;;27.60;32.97;99910.00;5047482;28;45634;-76
2023/04/12 13:08:07;;;;;;;;;1.00;1.00;;;;;27.60;33.70;99930.94;5045794;28;45511;-77
2023/04/12 13:10:32;;;;;;;;;0.00;0.00;;;;;27.58;33.58;99922.94;5053075;28;51152;-75
2023/04/12 13:12:57;;;;;;;;;0.67;0.00;;;;;27.57;33.52;99921.28;5053183;28;45709;-77
2023/04/12 13:15:23;;;;;;;;;0.33;0.00;;;;;27.57;32.92;99917.69;5043884;28;45308;-76
2023/04/12 13:17:51;;;;;;;;;0.00;0.00;;;;;27.57;32.83;99904.06;5052423;28;45511;-76
2023/04/12 13:20:16;;;;;;;;;0.00;0.00;;;;;27.57;33.08;99901.34;5040156;28;45597;-77
2023/04/12 13:22:42;;;;;;;;;2.00;0.33;;;;;27.61;32.99;99908.94;5051400;28;46047;-74
2023/04/12 13:25:08;;;;;;;;;1.00;0.00;;;;;27.65;33.18;99892.97;5053045;28;47208;-74
2023/04/12 13:27:33;;;;;;;;;0.33;0.33;;;;;27.67;33.37;99895.47;5052884;28;45458;-77
2023/04/12 13:29:59;;;;;;;;;0.00;0.00;;;;;27.71;33.25;99896.72;5052947;28;45566;-76
2023/04/12 13:32:27;;;;;;;;;0.00;0.00;;;;;27.75;33.00;99898.78;5039315;28;45798;-77
2023/04/12 13:34:52;;;;;;;;;0.00;0.00;;;;;27.78;33.50;99883.06;5051530;28;45506;-75
2023/04/12 13:37:18;;;;;;;;;4.67;0.00;;;;;27.81;33.32;99879.88;5053436;28;45758;-73
2023/04/12 13:39:43;;;;;;;;;0.00;0.00;;;;;27.84;33.24;99877.53;5045177;28;47369;-73
2023/04/12 13:42:09;;;;;;;;;0.00;0.00;;;;;27.89;32.69;99887.81;5052061;28;45702;-75
2023/04/12 13:44:35;;;;;;;;;0.00;0.00;;;;;27.92;33.20;99889.25;5050893;28;45850;-76
2023/04/12 13:47:01;;;;;;;;;0.00;0.00;;;;;27.94;32.67;99888.00;5046725;28;45451;-75
2023/04/12 13:49:26;;;;;;;;;0.00;0.00;;;;;27.96;32.68;99876.88;5051344;28;45459;-76
2023/04/12 13:51:52;;;;;;;;;0.67;0.67;;;;;27.99;32.44;99888.16;5051730;28;58610;-77
2023/04/12 13:54:18;;;;;;;;;1.00;1.00;;;;;28.02;33.12;99890.47;5052960;28;45594;-76
2023/04/12 13:56:43;;;;;;;;;2.33;2.33;;;;;28.04;32.47;99898.44;5053589;28;45494;-75
2023/04/12 13:59:09;;;;;;;;;1.00;1.00;;;;;28.02;32.42;99895.91;5048502;28;45875;-82
2023/04/12 14:01:34;;;;;;;;;1.00;1.00;;;;;28.03;32.74;99904.91;5043819;28;45824;-80
2023/04/12 14:04:00;;;;;;;;;0.00;0.00;;;;;28.03;32.22;99883.09;5037661;28;45477;-80
2023/04/12 14:06:26;;;;;;;;;0.00;0.00;;;;;28.11;32.94;99885.56;5047209;28;45478;-82
2023/04/12 14:08:51;;;;;;;;;0.00;0.00;;;;;28.20;32.82;99883.41;5052117;28;45607;-82
2023/04/12 14:11:16;;;;;;;;;2.00;1.33;;;;;28.27;32.33;99876.03;5046733;28;45976;-82
2023/04/12 14:13:42;;;;;;;;;1.67;0.00;;;;;28.37;32.52;99874.72;5051740;28;45357;-80
2023/04/12 14:16:08;;;;;;;;;0.67;0.33;;;;;28.43;32.65;99862.06;5046145;28;45406;-83
2023/04/12 14:18:33;;;;;;;;;0.67;0.67;;;;;28.47;32.71;99861.41;5042715;28;45640;-80
2023/04/12 14:20:58;;;;;;;;;1.33;1.33;;;;;28.51;32.82;99859.06;5048591;28;47182;-78
2023/04/12 14:23:25;;;;;;;;;0.33;0.33;;;;;28.55;32.46;99854.81;5050402;28;52494;-82
2023/04/12 14:25:51;;;;;;;;;3.00;1.00;;;;;28.59;32.36;99858.78;5052871;28;45501;-81
2023/04/12 14:28:16;;;;;;;;;0.67;0.00;;;;;28.60;32.62;99845.97;5040454;28;45553;-77
2023/04/12 14:30:43;;;;;;;;;0.67;0.67;;;;;28.57;31.96;99857.34;5040578;28;45470;-79
2023/04/12 14:33:08;;;;;;;;;0.00;0.00;;;;;28.51;32.37;99850.88;5041698;28;45735;-79
2023/04/12 14:35:34;;;;;;;;;0.00;0.00;;;;;28.44;32.21;99841.91;5039627;28;45799;-78
2023/04/12 14:37:59;;;;;;;;;0.00;0.00;;;;;28.43;32.11;99848.41;5040168;28;45379;-78
2023/04/12 14:40:24;;;;;;;;;0.67;0.00;;;;;28.40;31.99;99856.00;5051102;28;45951;-78
2023/04/12 14:42:50;;;;;;;;;0.00;0.00;;;;;28.35;32.08;99860.44;5046106;28;45436;-81
2023/04/12 14:45:16;;;;;;;;;0.00;0.00;;;;;28.30;31.83;99872.03;5043634;28;51731;-78
2023/04/12 14:47:41;;;;;;;;;1.00;0.00;;;;;28.24;31.51;99878.34;5048949;28;45460;-77
2023/04/12 14:50:07;;;;;;;;;0.67;0.67;;;;;28.19;31.63;99894.56;5051140;28;46565;-78
2023/04/12 14:52:32;;;;;;;;;1.00;0.00;;;;;28.14;31.92;99928.78;5049295;28;45506;-77
2023/04/12 14:54:57;;;;;;;;;0.00;0.00;;;;;28.11;31.59;99937.41;5051367;28;45403;-78
2023/04/12 14:57:23;;;;;;;;;3.33;2.00;;;;;28.05;32.01;99942.88;5045639;28;45568;-78
2023/04/12 14:59:48;;;;;;;;;2.67;1.00;;;;;28.01;31.58;99924.25;5043867;28;46527;-78
2023/04/12 15:02:13;;;;;;;;;2.00;2.00;;;;;27.97;31.65;99900.34;5050393;28;45737;-77
2023/04/12 15:04:39;;;;;;;;;0.33;0.33;;;;;27.92;32.25;99873.75;5044352;28;45669;-76
2023/04/12 15:07:04;;;;;;;;;2.00;1.00;;;;;27.88;32.24;99881.50;5050761;28;45481;-77
2023/04/12 15:09:30;;;;;;;;;0.00;0.00;;;;;27.85;31.77;99881.97;5043129;28;46282;-78
2023/04/12 15:11:59;;;;;;;;;2.00;1.00;;;;;27.81;31.60;99885.34;5048290;28;45574;-77
2023/04/12 15:14:25;;;;;;;;;1.00;1.00;;;;;27.76;32.01;99883.28;5049342;28;45541;-78
2023/04/12 15:16:50;;;;;;;;;3.67;2.33;;;;;27.71;31.89;99889.38;5046326;28;45701;-78
2023/04/12 15:19:16;;;;;;;;;5.00;2.00;;;;;27.68;32.36;99889.81;5048283;28;48239;-77
2023/04/12 15:21:43;;;;;;;;;3.00;1.00;;;;;27.64;31.56;99891.31;5045526;28;45489;-77
2023/04/12 15:24:08;;;;;;;;;1.00;1.00;;;;;27.59;32.26;99900.09;5055073;28;45710;-77
2023/04/12 15:26:35;;;;;;;;;2.00;1.00;;;;;27.54;32.15;99907.25;5053516;28;57268;-77
2023/04/12 15:29:00;;;;;;;;;0.33;0.33;;;;;27.48;31.61;99939.78;5055056;28;46130;-77
2023/04/12 15:31:27;;;;;;;;;1.00;1.00;;;;;27.43;32.17;99969.53;5046820;28;45384;-77
2023/04/12 15:33:52;;;;;;;;;2.00;0.33;;;;;27.40;32.49;99997.22;5048804;28;45488;-77
2023/04/12 15:36:17;;;;;;;;;2.67;1.67;;;;;27.38;32.47;99941.25;5054305;28;45491;-77
2023/04/12 15:38:43;;;;;;;;;0.00;0.00;;;;;27.34;31.90;99925.34;5054503;28;45988;-77
2023/04/12 15:41:09;;;;;;;;;0.67;0.67;;;;;27.31;32.34;99903.97;5047368;28;46064;-77
2023/04/12 15:43:35;;;;;;;;;0.00;0.00;;;;;27.29;32.06;99900.63;5038935;28;46939;-77
2023/04/12 15:46:01;;;;;;;;;0.33;0.00;;;;;27.27;32.24;99889.13;5054794;28;45418;-78
2023/04/12 15:48:27;;;;;;;;;0.00;0.00;;;;;27.28;32.27;99898.94;5052771;28;46165;-77
2023/04/12 15:50:54;;;;;;;;;0.00;0.00;;;;;27.29;32.24;99894.31;5069810;28;45450;-78
2023/04/12 15:53:22;;;;;;;;;2.33;1.33;;;;;27.28;32.09;99898.94;5054150;28;45423;-77
2023/04/12 15:55:53;;;;;;;;;1.00;0.33;;;;;27.25;32.37;99898.56;5054324;28;45614;-77
2023/04/12 15:58:22;;;;;;;;;0.00;0.00;;;;;27.22;32.31;99897.91;5053785;28;45394;-77
2023/04/12 16:00:48;;;;;;;;;0.00;0.00;;;;;27.21;31.64;99889.94;5041870;28;45493;-78
2023/04/12 16:03:21;;;;;;;;;0.00;0.00;;;;;27.21;32.17;99895.41;5044699;28;45505;-77
2023/04/12 16:05:48;;;;;;;;;0.00;0.00;;;;;27.22;31.80;99899.81;5044387;28;45463;-77
2023/04/12 16:08:14;;;;;;;;;0.00;0.00;;;;;27.21;32.44;99900.84;5048129;28;47080;-78
2023/04/12 16:10:40;;;;;;;;;0.33;0.00;;;;;27.18;31.98;99899.38;5049780;28;45627;-78
2023/04/12 16:13:05;;;;;;;;;0.00;0.00;;;;;27.15;31.86;99899.84;5044750;28;45427;-79
2023/04/12 16:15:32;;;;;;;;;0.00;0.00;;;;;27.14;32.46;99908.22;5050571;28;45414;-80
2023/04/12 16:17:57;;;;;;;;;1.00;0.00;;;;;27.14;31.82;99906.31;5049783;28;47032;-80
2023/04/12 16:20:23;;;;;;;;;0.00;0.00;;;;;27.17;32.24;99907.75;5049016;28;45434;-77
2023/04/12 16:22:53;;;;;;;;;0.00;0.00;;;;;27.19;32.50;99902.97;5049948;28;45323;-76
2023/04/12 16:25:19;;;;;;;;;0.33;0.00;;;;;27.20;31.66;99904.63;5051124;28;45426;-76
2023/04/12 16:27:44;;;;;;;;;0.33;0.33;;;;;27.23;32.29;99901.47;5038146;28;46191;-76
2023/04/12 16:30:11;;;;;;;;;0.67;0.67;;;;;27.20;31.97;99902.75;5035705;28;45490;-76
2023/04/12 16:32:37;;;;;;;;;1.00;1.00;;;;;27.17;32.17;99895.00;5039798;28;45701;-76
2023/04/12 16:35:03;;;;;;;;;0.00;0.00;;;;;27.15;32.08;99896.25;5053753;28;45365;-76
2023/04/12 16:37:29;;;;;;;;;1.00;0.00;;;;;27.11;32.39;99898.59;5041424;28;45442;-76
2023/04/12 16:39:54;;;;;;;;;1.67;1.00;;;;;27.07;31.56;99894.59;5053808;28;45652;-76
2023/04/12 16:42:22;;;;;;;;;0.00;0.00;;;;;27.06;32.35;99893.75;5052470;28;45651;-76
2023/04/12 16:44:47;;;;;;;;;2.00;0.33;;;;;27.03;31.88;99877.88;5050895;28;45419;-76
2023/04/12 16:47:12;;;;;;;;;0.00;0.00;;;;;27.06;32.41;99882.03;5046499;28;46771;-76
2023/04/12 16:49:38;;;;;;;;;0.33;0.33;;;;;27.07;31.78;99891.88;5053531;28;45463;-76
2023/04/12 16:52:03;;;;;;;;;0.00;0.00;;;;;27.06;31.84;99873.88;5044269;28;45538;-76
2023/04/12 16:54:29;;;;;;;;;0.67;0.00;;;;;27.05;32.40;99886.66;5045424;28;45731;-76
2023/04/12 16:56:56;;;;;;;;;1.67;0.00;;;;;27.04;32.13;99889.56;5047397;28;45502;-76
2023/04/12 16:59:22;;;;;;;;;0.67;0.67;;;;;27.01;32.24;99899.00;5037322;28;45548;-76
2023/04/12 17:01:47;;;;;;;;;0.00;0.00;;;;;27.01;32.42;99909.09;5042105;28;45511;-76
2023/04/12 17:04:13;;;;;;;;;0.67;0.67;;;;;27.02;31.98;99913.47;5038301;28;53023;-77
2023/04/12 17:06:38;;;;;;;;;0.00;0.00;;;;;27.03;32.26;99921.44;5043326;28;45580;-77
2023/04/12 17:09:04;;;;;;;;;0.00;0.00;;;;;27.02;31.84;99911.56;5037632;28;45507;-77
2023/04/12 17:11:29;;;;;;;;;1.00;1.00;;;;;27.02;32.16;99932.53;5038310;28;45790;-76
2023/04/12 17:13:55;;;;;;;;;0.67;0.67;;;;;26.98;31.85;99932.13;5040774;28;45501;-77
2023/04/12 17:16:21;;;;;;;;;0.00;0.00;;;;;26.97;32.12;99919.53;5048345;28;45574;-78
2023/04/12 17:18:46;;;;;;;;;0.00;0.00;;;;;26.98;31.79;99904.06;5044195;28;45462;-79
2023/04/12 17:21:13;;;;;;;;;0.00;0.00;;;;;26.99;31.83;99922.91;5051245;28;45442;-80
2023/04/12 17:23:39;;;;;;;;;1.00;0.00;;;;;26.99;32.33;99932.94;5048201;28;45600;-79
2023/04/12 17:26:07;;;;;;;;;0.00;0.00;;;;;26.96;31.77;99942.38;5041943;28;61368;-78
2023/04/12 17:28:33;;;;;;;;;0.00;0.00;;;;;26.92;32.09;99952.84;5045507;28;45466;-80
2023/04/12 17:31:00;;;;;;;;;0.00;0.00;;;;;26.89;31.77;99942.34;5049408;28;45933;-80
2023/04/12 17:33:27;;;;;;;;;1.00;1.00;;;;;26.86;31.75;99939.22;5042829;28;45578;-81
2023/04/12 17:35:53;;;;;;;;;0.00;0.00;;;;;26.82;31.77;99923.28;5047412;28;46019;-81
2023/04/12 17:38:19;;;;;;;;;0.00;0.00;;;;;26.80;32.26;99946.34;5049263;28;45809;-79
2023/04/12 17:40:44;;;;;;;;;0.00;0.00;;;;;26.77;31.92;99912.19;5052002;28;45488;-79
2023/04/12 17:43:10;;;;;;;;;0.00;0.00;;;;;26.74;32.21;99914.50;5042330;28;45535;-78
2023/04/12 17:45:35;;;;;;;;;0.00;0.00;;;;;26.71;32.38;99899.44;5038560;28;45910;-79
2023/04/12 17:48:01;;;;;;;;;0.00;0.00;;;;;26.70;31.98;99931.25;5038581;28;45736;-79
2023/04/12 17:50:26;;;;;;;;;0.00;0.00;;;;;26.72;32.27;99938.41;5047262;28;45744;-81
2023/04/12 17:52:51;;;;;;;;;0.00;0.00;;;;;26.72;32.20;99932.94;5052098;28;45335;-82
2023/04/12 17:55:21;;;;;;;;;0.00;0.00;;;;;26.69;32.33;99939.66;5048024;28;46343;-83
2023/04/12 17:57:47;;;;;;;;;0.00;0.00;;;;;26.67;31.96;99942.59;5036648;28;45664;-84
2023/04/12 18:00:13;;;;;;;;;1.00;1.00;;;;;26.69;32.22;99970.41;5027766;28;46331;-80
2023/04/12 18:02:39;;;;;;;;;0.00;0.00;;;;;26.69;32.12;99956.81;5030104;28;45760;-83
2023/04/12 18:05:06;;;;;;;;;0.00;0.00;;;;;26.71;32.48;99948.44;5028429;28;47229;-86
2023/04/12 18:07:31;;;;;;;;;1.00;1.00;;;;;26.71;32.66;99926.66;5033236;28;46090;-84
2023/04/12 18:09:57;;;;;;;;;0.00;0.00;;;;;26.69;31.96;99921.41;5045273;28;45568;-84